Time;durP1;ratioP1;P1;durP2;ratioP2;P2;SDS_P1;SDS_P2;PMS_P1;PMS_P2;Temp;Humidity;BMP_temperature;BMP_pressure;BME280_temperature;BME280_humidity;BME280_pressure;Samples;Min_cycle;Max_cycle;Signal;HPM_P1;HPM_P2
2021/01/15 00:01:39;;;;;;;0.57;0.57;;;-1.30;80.40;;;;;;4948235;29;20768;-75
2021/01/15 00:04:06;;;;;;;0.63;0.63;;;-1.30;80.40;;;;;;4948132;29;20285;-76
2021/01/15 00:06:32;;;;;;;0.33;0.33;;;-1.30;80.40;;;;;;4949701;28;20183;-75
2021/01/15 00:08:58;;;;;;;0.80;0.80;;;-1.30;80.80;;;;;;4959290;28;20194;-76
2021/01/15 00:11:30;;;;;;;0.43;0.43;;;-1.30;80.60;;;;;;4971138;28;20182;-76
2021/01/15 00:13:56;;;;;;;1.00;0.70;;;-1.30;80.80;;;;;;4971245;28;20699;-75
2021/01/15 00:16:24;;;;;;;0.40;0.40;;;-1.30;80.90;;;;;;4953186;28;20226;-74
2021/01/15 00:18:51;;;;;;;0.63;0.63;;;-1.30;81.10;;;;;;4936140;29;20183;-76
2021/01/15 00:21:25;;;;;;;1.10;0.70;;;-1.30;81.20;;;;;;4962346;28;20297;-75
2021/01/15 00:23:53;;;;;;;0.50;0.50;;;-1.30;81.40;;;;;;4955438;28;20221;-75
2021/01/15 00:26:20;;;;;;;0.60;0.60;;;-1.30;81.60;;;;;;4952817;28;20175;-76
2021/01/15 00:28:47;;;;;;;0.80;0.80;;;-1.30;81.60;;;;;;4951450;29;20195;-76
2021/01/15 00:31:13;;;;;;;1.80;0.90;;;-1.30;81.60;;;;;;4951690;29;20218;-78
2021/01/15 00:33:39;;;;;;;1.73;0.93;;;-1.30;81.60;;;;;;4951642;29;20180;-76
2021/01/15 00:36:06;;;;;;;1.03;0.57;;;-1.40;81.80;;;;;;4951305;29;20194;-76
2021/01/15 00:38:32;;;;;;;0.80;0.80;;;-1.40;81.80;;;;;;4973166;28;20951;-76
2021/01/15 00:41:06;;;;;;;0.60;0.60;;;-1.50;81.80;;;;;;4956527;28;20222;-76
2021/01/15 00:43:32;;;;;;;1.13;0.77;;;-1.60;82.10;;;;;;4970454;28;20170;-76
2021/01/15 00:45:58;;;;;;;0.40;0.40;;;-1.60;82.20;;;;;;4968644;28;20186;-76
2021/01/15 00:48:24;;;;;;;0.50;0.50;;;-1.60;82.30;;;;;;4969919;28;20175;-76
2021/01/15 00:50:50;;;;;;;0.47;0.47;;;-1.60;82.30;;;;;;4964212;28;20261;-76
2021/01/15 00:53:16;;;;;;;0.70;0.70;;;-1.70;82.40;;;;;;4934107;29;20610;-75
2021/01/15 00:55:42;;;;;;;2.47;1.03;;;-1.70;82.50;;;;;;4951353;29;20179;-76
2021/01/15 00:58:11;;;;;;;0.47;0.47;;;-1.70;82.70;;;;;;4951342;29;20601;-75
2021/01/15 01:00:37;;;;;;;1.07;0.83;;;-1.70;82.70;;;;;;4959970;28;20285;-76
2021/01/15 01:03:05;;;;;;;0.70;0.70;;;-1.70;82.80;;;;;;4972051;28;20361;-76
2021/01/15 01:05:32;;;;;;;0.73;0.63;;;-1.60;82.70;;;;;;4981942;28;20191;-76
2021/01/15 01:07:57;;;;;;;0.83;0.83;;;-1.60;82.70;;;;;;4969138;28;20197;-76
2021/01/15 01:10:23;;;;;;;1.30;0.93;;;-1.70;82.80;;;;;;4951259;28;20182;-76
2021/01/15 01:12:49;;;;;;;0.50;0.50;;;-1.70;82.90;;;;;;4952506;28;20289;-76
2021/01/15 01:15:15;;;;;;;0.80;0.80;;;-1.70;82.90;;;;;;4951314;29;20211;-76
2021/01/15 01:17:41;;;;;;;0.50;0.50;;;-1.60;82.80;;;;;;4950674;28;20191;-75
2021/01/15 01:20:10;;;;;;;1.10;0.60;;;-1.60;82.70;;;;;;4950577;29;20222;-76
2021/01/15 01:22:37;;;;;;;1.00;0.97;;;-1.60;82.50;;;;;;4950791;29;20588;-76
2021/01/15 01:25:03;;;;;;;3.57;1.40;;;-1.60;82.50;;;;;;4950909;29;20186;-76
2021/01/15 01:27:29;;;;;;;0.80;0.80;;;-1.50;82.40;;;;;;4966242;28;20202;-76
2021/01/15 01:29:54;;;;;;;1.27;1.17;;;-1.50;81.90;;;;;;4970540;28;20182;-76
2021/01/15 01:32:20;;;;;;;0.83;0.83;;;-1.40;81.80;;;;;;4969162;28;21036;-76
2021/01/15 01:34:46;;;;;;;0.50;0.50;;;-1.40;81.70;;;;;;4970086;28;20253;-76
2021/01/15 01:37:11;;;;;;;0.50;0.50;;;-1.30;81.50;;;;;;4968355;28;20445;-76
2021/01/15 01:39:37;;;;;;;1.80;0.73;;;-1.30;81.00;;;;;;4969742;28;20253;-76
2021/01/15 01:42:03;;;;;;;0.50;0.50;;;-1.30;81.00;;;;;;4956233;28;20193;-76
2021/01/15 01:44:29;;;;;;;0.60;0.60;;;-1.30;80.60;;;;;;4950670;29;20217;-76
2021/01/15 01:46:55;;;;;;;0.97;0.80;;;-1.30;80.60;;;;;;4952110;28;20273;-77
2021/01/15 01:49:22;;;;;;;0.60;0.60;;;-1.30;80.50;;;;;;4950607;29;20191;-77
2021/01/15 01:51:51;;;;;;;0.90;0.90;;;-1.30;80.40;;;;;;4959699;28;20178;-77
2021/01/15 01:54:18;;;;;;;1.37;1.27;;;-1.20;80.30;;;;;;4969757;28;20196;-77
2021/01/15 01:56:44;;;;;;;0.70;0.50;;;-1.20;80.50;;;;;;4969591;28;20178;-76
2021/01/15 01:59:13;;;;;;;1.07;0.97;;;-1.20;80.40;;;;;;4969095;28;20190;-76
2021/01/15 02:01:39;;;;;;;1.47;1.00;;;-1.20;80.50;;;;;;4969565;28;20194;-75
2021/01/15 02:04:06;;;;;;;0.80;0.80;;;-1.30;80.60;;;;;;4969269;28;20757;-76
2021/01/15 02:06:34;;;;;;;0.80;0.80;;;-1.20;80.90;;;;;;4964021;28;20358;-76
2021/01/15 02:09:02;;;;;;;0.80;0.80;;;-1.20;80.90;;;;;;4961007;28;20182;-76
2021/01/15 02:11:37;;;;;;;1.00;1.00;;;-1.20;80.90;;;;;;4949969;28;20190;-77
2021/01/15 02:14:18;;;;;;;1.40;1.30;;;-1.20;81.00;;;;;;4971488;28;20187;-76
2021/01/15 02:16:44;;;;;;;1.03;0.93;;;-1.20;81.10;;;;;;4982320;28;20182;-76
2021/01/15 02:19:19;;;;;;;0.70;0.70;;;-1.20;81.20;;;;;;4987082;28;20256;-76
2021/01/15 02:21:57;;;;;;;1.40;1.30;;;-1.20;81.40;;;;;;4977383;28;20244;-75
2021/01/15 02:24:35;;;;;;;0.93;0.93;;;-1.30;81.60;;;;;;4967216;28;20181;-75
2021/01/15 02:27:31;;;;;;;0.70;0.70;;;-1.30;81.90;;;;;;4965627;28;20185;-76
2021/01/15 02:30:06;;;;;;;0.63;0.63;;;-1.40;82.20;;;;;;4970595;28;20236;-76
2021/01/15 02:32:50;;;;;;;1.53;1.00;;;-1.40;82.50;;;;;;4973329;28;20177;-75
2021/01/15 02:35:51;;;;;;;0.60;0.60;;;-1.50;82.70;;;;;;4973483;28;20176;-75
2021/01/15 02:38:30;;;;;;;0.60;0.60;;;-1.60;83.10;;;;;;4950426;29;20187;-75
2021/01/15 02:41:04;;;;;;;1.30;0.77;;;-1.60;83.50;;;;;;4938706;29;20298;-75
2021/01/15 02:43:32;;;;;;;0.87;0.87;;;-1.70;83.60;;;;;;4927975;29;20214;-75
2021/01/15 02:46:00;;;;;;;1.30;0.80;;;-1.60;83.70;;;;;;4904482;29;20191;-75
2021/01/15 02:48:30;;;;;;;1.60;0.93;;;-1.60;83.70;;;;;;4908877;29;20180;-75
2021/01/15 02:50:58;;;;;;;1.17;1.17;;;-1.60;83.70;;;;;;4914414;29;20184;-75
2021/01/15 02:53:24;;;;;;;1.20;1.10;;;-1.70;83.90;;;;;;4927238;29;20184;-75
2021/01/15 02:55:50;;;;;;;0.80;0.80;;;-1.70;83.80;;;;;;4911726;29;20223;-75
2021/01/15 02:58:16;;;;;;;0.80;0.77;;;-1.70;83.90;;;;;;4912019;29;20211;-75
2021/01/15 03:00:41;;;;;;;1.20;1.20;;;-1.70;83.90;;;;;;4911869;29;20364;-75
2021/01/15 03:03:24;;;;;;;1.00;0.90;;;-1.60;83.90;;;;;;4927973;29;20187;-75
2021/01/15 03:06:22;;;;;;;0.80;0.80;;;-1.70;83.90;;;;;;4911535;29;20199;-75
2021/01/15 03:08:48;;;;;;;2.10;1.03;;;-1.70;84.00;;;;;;4907984;29;20203;-75
2021/01/15 03:11:15;;;;;;;1.20;1.10;;;-1.70;84.00;;;;;;4909695;29;20204;-75
2021/01/15 03:13:43;;;;;;;0.80;0.80;;;-1.60;84.10;;;;;;4909997;29;20208;-75
2021/01/15 03:16:09;;;;;;;0.97;0.97;;;-1.70;84.10;;;;;;4909242;29;20191;-75
2021/01/15 03:18:36;;;;;;;1.30;1.30;;;-1.60;84.20;;;;;;4929836;29;20213;-77
2021/01/15 03:21:02;;;;;;;2.90;1.13;;;-1.60;83.90;;;;;;4930182;29;20226;-77
2021/01/15 03:23:29;;;;;;;1.00;1.00;;;-1.50;83.70;;;;;;4912683;29;20524;-76
2021/01/15 03:25:55;;;;;;;1.97;1.47;;;-1.50;83.60;;;;;;4927339;29;20206;-75
2021/01/15 03:28:21;;;;;;;1.90;1.43;;;-1.40;83.50;;;;;;4908621;29;20651;-75
2021/01/15 03:30:47;;;;;;;1.33;1.17;;;-1.40;83.50;;;;;;4892774;29;20188;-75
2021/01/15 03:33:13;;;;;;;2.10;1.77;;;-1.40;83.30;;;;;;4908950;29;20196;-75
2021/01/15 03:35:38;;;;;;;1.17;1.10;;;-1.40;83.30;;;;;;4908520;29;20192;-75
2021/01/15 03:38:12;;;;;;;1.57;1.00;;;-1.40;83.40;;;;;;4908807;29;20196;-75
2021/01/15 03:40:40;;;;;;;1.27;1.27;;;-1.40;83.30;;;;;;4918947;29;20269;-75
2021/01/15 03:43:26;;;;;;;1.10;0.97;;;-1.30;83.40;;;;;;4931069;29;20245;-75
2021/01/15 03:45:52;;;;;;;1.07;1.03;;;-1.30;83.40;;;;;;4961611;28;20270;-75
2021/01/15 03:48:20;;;;;;;1.30;1.23;;;-1.30;83.40;;;;;;4954883;28;20185;-75
2021/01/15 03:50:46;;;;;;;1.13;1.13;;;-1.20;83.30;;;;;;4948952;29;20233;-76
2021/01/15 03:53:15;;;;;;;2.57;0.97;;;-1.20;83.20;;;;;;4953346;29;20659;-76
2021/01/15 03:55:41;;;;;;;0.97;0.97;;;-1.20;83.00;;;;;;4952946;29;20186;-76
2021/01/15 03:58:07;;;;;;;1.10;1.10;;;-1.20;83.00;;;;;;4952733;29;20198;-76
2021/01/15 04:00:33;;;;;;;2.00;1.00;;;-1.10;82.90;;;;;;4952404;28;20629;-77
2021/01/15 04:02:59;;;;;;;1.70;1.60;;;-1.20;82.70;;;;;;4952835;29;20249;-76
2021/01/15 04:05:24;;;;;;;1.03;1.03;;;-1.10;82.60;;;;;;4961888;28;20190;-76
2021/01/15 04:07:50;;;;;;;0.87;0.87;;;-1.20;82.50;;;;;;4972269;28;20177;-75
2021/01/15 04:10:17;;;;;;;1.17;0.90;;;-1.20;82.70;;;;;;4971820;28;20580;-75
2021/01/15 04:12:43;;;;;;;0.80;0.80;;;-1.20;82.70;;;;;;4960194;28;20222;-76
2021/01/15 04:15:10;;;;;;;1.30;1.17;;;-1.20;82.70;;;;;;4955652;28;20183;-76
2021/01/15 04:17:37;;;;;;;0.93;0.93;;;-1.20;82.70;;;;;;4952425;29;20179;-75
2021/01/15 04:20:07;;;;;;;0.93;0.93;;;-1.20;82.50;;;;;;4952780;29;20207;-76
2021/01/15 04:22:34;;;;;;;0.70;0.70;;;-1.20;82.70;;;;;;4952429;29;20282;-76
2021/01/15 04:25:00;;;;;;;1.67;1.33;;;-1.20;82.70;;;;;;4934976;29;20211;-76
2021/01/15 04:27:32;;;;;;;1.00;1.00;;;-1.10;82.60;;;;;;4934773;29;20759;-76
2021/01/15 04:30:01;;;;;;;3.37;1.17;;;-1.20;82.30;;;;;;4934657;29;20198;-75
2021/01/15 04:32:27;;;;;;;1.10;1.10;;;-1.10;82.40;;;;;;4958517;28;20189;-75
2021/01/15 04:34:54;;;;;;;1.30;0.60;;;-1.10;82.40;;;;;;4954503;28;20190;-75
2021/01/15 04:37:19;;;;;;;1.60;1.00;;;-1.20;82.40;;;;;;4971084;28;20183;-75
2021/01/15 04:39:45;;;;;;;1.00;1.00;;;-1.20;82.50;;;;;;4953849;28;20252;-76
2021/01/15 04:42:14;;;;;;;1.40;0.90;;;-1.20;82.50;;;;;;4970857;28;20679;-76
2021/01/15 04:44:41;;;;;;;1.20;1.10;;;-1.20;82.40;;;;;;4970621;28;20694;-75
2021/01/15 04:47:09;;;;;;;0.70;0.70;;;-1.10;82.50;;;;;;4971061;28;20254;-76
2021/01/15 04:49:36;;;;;;;0.90;0.90;;;-1.10;82.40;;;;;;4971362;28;20200;-75
2021/01/15 04:52:03;;;;;;;0.90;0.90;;;-1.10;82.40;;;;;;4965801;28;20187;-76
2021/01/15 04:54:37;;;;;;;1.10;1.00;;;-1.10;82.40;;;;;;4978066;28;20672;-75
2021/01/15 04:57:11;;;;;;;1.33;1.23;;;-1.10;82.50;;;;;;4970859;28;20189;-75
2021/01/15 04:59:44;;;;;;;2.00;1.17;;;-1.10;82.50;;;;;;4968022;28;20224;-76
2021/01/15 05:02:12;;;;;;;1.03;0.93;;;-1.20;82.70;;;;;;4968918;28;20182;-75
2021/01/15 05:04:38;;;;;;;1.50;1.40;;;-1.20;83.10;;;;;;4952060;28;20679;-75
2021/01/15 05:07:06;;;;;;;1.33;1.23;;;-1.20;83.10;;;;;;4968587;28;20225;-75
2021/01/15 05:10:02;;;;;;;1.50;1.40;;;-1.20;83.20;;;;;;4977420;28;20190;-76
2021/01/15 05:12:30;;;;;;;1.23;1.23;;;-1.20;83.20;;;;;;4968719;28;20618;-76
2021/01/15 05:14:56;;;;;;;4.20;1.87;;;-1.20;83.40;;;;;;4969360;28;20182;-77
2021/01/15 05:17:26;;;;;;;1.43;1.33;;;-1.30;83.50;;;;;;4970507;28;20197;-75
2021/01/15 05:19:55;;;;;;;1.40;1.30;;;-1.20;83.60;;;;;;4969966;28;20209;-76
2021/01/15 05:22:21;;;;;;;1.87;1.77;;;-1.20;83.50;;;;;;4970877;28;20609;-76
2021/01/15 05:24:47;;;;;;;4.60;1.73;;;-1.20;83.70;;;;;;4971689;28;20571;-77
2021/01/15 05:30:17;;;;;;;1.17;1.17;;;-1.10;83.70;;;;;;4952599;29;20190;-77
2021/01/15 05:32:45;;;;;;;2.47;1.07;;;-1.10;83.50;;;;;;4969580;28;20189;-76
2021/01/15 05:35:11;;;;;;;1.10;1.10;;;-1.20;83.70;;;;;;4969892;28;20187;-76
2021/01/15 05:37:37;;;;;;;1.43;1.33;;;-1.20;83.70;;;;;;4970658;28;20871;-77
2021/01/15 05:40:05;;;;;;;1.43;1.33;;;-1.20;83.80;;;;;;4970300;28;20213;-76
2021/01/15 05:42:50;;;;;;;2.40;1.27;;;-1.20;83.70;;;;;;4969412;28;20403;-76
2021/01/15 05:45:16;;;;;;;1.13;1.13;;;-1.20;83.70;;;;;;4969741;28;20254;-77
2021/01/15 05:47:46;;;;;;;1.40;1.40;;;-1.10;83.80;;;;;;4968609;28;20313;-78
2021/01/15 05:50:13;;;;;;;1.57;1.47;;;-1.20;83.90;;;;;;4952753;28;20202;-76
2021/01/15 05:52:55;;;;;;;1.97;1.87;;;-1.10;83.90;;;;;;4969430;28;20194;-76
2021/01/15 05:55:22;;;;;;;1.53;1.47;;;-1.10;83.80;;;;;;4968609;28;20190;-76
2021/01/15 05:57:49;;;;;;;1.30;1.20;;;-1.10;83.80;;;;;;4969463;28;20190;-76
2021/01/15 06:00:37;;;;;;;1.50;1.50;;;-1.20;83.90;;;;;;4964265;28;20210;-76
2021/01/15 06:03:06;;;;;;;2.53;1.17;;;-1.20;83.90;;;;;;4972910;28;20177;-76
2021/01/15 06:05:33;;;;;;;1.70;1.50;;;-1.20;83.90;;;;;;4981920;28;20243;-75
2021/01/15 06:07:59;;;;;;;1.43;1.30;;;-1.20;84.00;;;;;;4959208;28;20189;-76
2021/01/15 06:10:27;;;;;;;2.33;1.40;;;-1.20;84.10;;;;;;4958557;28;20266;-76
2021/01/15 06:12:53;;;;;;;1.30;1.20;;;-1.10;84.00;;;;;;4974653;28;20186;-76
2021/01/15 06:15:20;;;;;;;1.60;1.50;;;-1.10;84.00;;;;;;4969665;28;20750;-77
2021/01/15 06:17:51;;;;;;;2.50;1.57;;;-1.00;83.90;;;;;;4944369;29;20210;-76
2021/01/15 06:20:21;;;;;;;1.83;1.73;;;-1.10;83.80;;;;;;4945373;28;20321;-76
2021/01/15 06:22:54;;;;;;;1.00;1.00;;;-1.00;83.50;;;;;;4952526;28;20186;-76
2021/01/15 06:25:36;;;;;;;1.40;1.30;;;-1.00;83.70;;;;;;4978457;28;20171;-76
2021/01/15 06:28:08;;;;;;;1.27;1.17;;;-1.00;83.30;;;;;;4954776;28;20248;-76
2021/01/15 06:30:35;;;;;;;1.27;1.27;;;-1.00;83.30;;;;;;4964550;28;20227;-76
2021/01/15 06:33:10;;;;;;;1.77;1.67;;;-1.00;83.20;;;;;;4985492;28;20208;-76
2021/01/15 06:35:38;;;;;;;1.60;1.33;;;-1.00;83.10;;;;;;4969987;28;20173;-77
2021/01/15 06:38:25;;;;;;;1.63;1.50;;;-0.90;83.10;;;;;;4952734;28;20194;-75
2021/01/15 06:40:52;;;;;;;1.60;1.57;;;-0.90;82.70;;;;;;4968188;28;20202;-75
2021/01/15 06:43:30;;;;;;;2.03;1.70;;;-0.80;82.70;;;;;;4958356;28;20249;-75
2021/01/15 06:46:02;;;;;;;1.60;1.60;;;-0.80;82.40;;;;;;4957962;28;20272;-78
2021/01/15 06:48:35;;;;;;;1.30;1.30;;;-0.80;81.90;;;;;;4971990;28;20174;-77
2021/01/15 06:51:03;;;;;;;1.50;1.50;;;-0.80;81.90;;;;;;4980169;28;20227;-77
2021/01/15 06:53:31;;;;;;;1.53;1.53;;;-0.70;82.00;;;;;;4961948;28;20188;-78
2021/01/15 06:56:00;;;;;;;1.77;1.67;;;-0.70;81.80;;;;;;4948060;28;20220;-75
2021/01/15 06:58:40;;;;;;;2.90;1.60;;;-0.60;81.90;;;;;;4967713;28;20182;-75
2021/01/15 07:01:32;;;;;;;2.60;1.20;;;-0.50;81.60;;;;;;4951774;28;20648;-75
2021/01/15 07:04:20;;;;;;;1.80;1.70;;;-0.50;81.50;;;;;;4969676;28;20626;-74
2021/01/15 07:07:01;;;;;;;1.23;1.23;;;-0.50;81.40;;;;;;4970452;28;20262;-74
2021/01/15 07:09:27;;;;;;;2.80;2.50;;;-0.50;81.20;;;;;;4972778;28;20185;-78
2021/01/15 07:12:01;;;;;;;2.20;1.83;;;-0.50;81.20;;;;;;4950818;28;20270;-77
2021/01/15 07:14:27;;;;;;;2.13;1.70;;;-0.50;81.10;;;;;;4966807;28;20174;-80
2021/01/15 07:16:57;;;;;;;2.00;1.90;;;-0.40;81.30;;;;;;4967040;28;20953;-81
2021/01/15 07:19:37;;;;;;;4.03;2.17;;;-0.40;81.60;;;;;;4951808;28;20182;-80
2021/01/15 07:22:03;;;;;;;2.10;2.00;;;-0.40;81.30;;;;;;4952837;28;20403;-84
2021/01/15 07:24:32;;;;;;;2.17;1.67;;;-0.30;81.50;;;;;;4963691;28;20323;-80
2021/01/15 07:26:59;;;;;;;3.27;2.10;;;-0.30;81.50;;;;;;4963550;28;20662;-74
2021/01/15 07:29:26;;;;;;;1.77;1.67;;;-0.40;81.10;;;;;;4955606;28;20182;-73
2021/01/15 07:32:29;;;;;;;3.13;1.83;;;-0.40;81.00;;;;;;4975984;28;20317;-74
2021/01/15 07:34:58;;;;;;;2.50;2.30;;;-0.40;81.10;;;;;;4893605;29;20307;-75
2021/01/15 07:37:28;;;;;;;1.93;1.83;;;-0.40;80.80;;;;;;4916901;29;20609;-77
2021/01/15 07:40:10;;;;;;;3.17;2.87;;;-0.40;80.90;;;;;;4902216;29;20219;-77
2021/01/15 07:42:49;;;;;;;4.00;2.57;;;-0.40;81.00;;;;;;4900029;29;20176;-77
2021/01/15 07:45:23;;;;;;;2.00;1.90;;;-0.30;80.70;;;;;;4906066;29;20200;-77
2021/01/15 07:47:53;;;;;;;1.87;1.73;;;-0.30;80.50;;;;;;4909507;29;20644;-81
2021/01/15 07:50:42;;;;;;;3.53;1.73;;;-0.20;80.00;;;;;;4912557;29;20192;-82
2021/01/15 07:53:19;;;;;;;1.77;1.67;;;-0.20;80.10;;;;;;4895195;29;20204;-82
2021/01/15 07:55:46;;;;;;;3.33;1.67;;;-0.10;79.60;;;;;;4909291;29;20219;-82
2021/01/15 07:58:14;;;;;;;1.40;1.37;;;-0.20;79.50;;;;;;4909289;29;20195;-84
2021/01/15 08:00:40;;;;;;;1.43;1.43;;;-0.10;79.70;;;;;;4910646;29;20212;-77
2021/01/15 08:03:07;;;;;;;1.70;1.60;;;0.00;79.70;;;;;;4907945;29;20187;-83
2021/01/15 08:05:32;;;;;;;1.57;1.47;;;0.20;79.20;;;;;;4910969;29;20924;-80
2021/01/15 08:08:06;;;;;;;1.73;1.70;;;0.20;78.80;;;;;;4927858;29;20336;-80
2021/01/15 08:10:32;;;;;;;3.40;2.00;;;0.40;78.90;;;;;;4920728;28;20186;-79
2021/01/15 08:12:58;;;;;;;1.60;1.50;;;0.60;78.40;;;;;;4969001;28;20271;-79
2021/01/15 08:15:28;;;;;;;1.53;1.43;;;0.90;78.20;;;;;;4967349;28;20744;-80
2021/01/15 08:17:54;;;;;;;2.17;2.07;;;1.50;77.80;;;;;;4954436;28;20742;-76
2021/01/15 08:20:20;;;;;;;1.70;1.70;;;2.10;76.20;;;;;;4966751;28;20203;-78
2021/01/15 08:22:51;;;;;;;2.40;2.30;;;2.40;75.30;;;;;;4951349;28;20187;-79
2021/01/15 08:25:28;;;;;;;2.10;2.00;;;2.80;73.40;;;;;;4950832;28;20301;-80
2021/01/15 08:27:55;;;;;;;1.93;1.77;;;2.80;72.60;;;;;;4952503;28;20312;-80
2021/01/15 08:30:21;;;;;;;4.90;2.83;;;2.70;72.30;;;;;;4954074;28;20190;-79
2021/01/15 08:32:47;;;;;;;1.93;1.83;;;2.60;72.80;;;;;;4968333;28;20202;-77
2021/01/15 08:35:21;;;;;;;2.67;2.50;;;2.90;73.30;;;;;;4979272;28;20885;-76
2021/01/15 08:37:59;;;;;;;2.80;2.70;;;3.10;72.20;;;;;;4948154;28;20679;-76
2021/01/15 08:40:38;;;;;;;2.43;2.23;;;3.20;71.80;;;;;;4952334;29;20206;-75
2021/01/15 08:43:05;;;;;;;6.23;3.50;;;3.20;71.30;;;;;;4968988;28;20178;-76
2021/01/15 08:45:32;;;;;;;2.37;2.27;;;3.10;71.00;;;;;;4970813;28;20289;-76
2021/01/15 08:47:59;;;;;;;1.80;1.70;;;2.90;71.20;;;;;;4952874;28;20186;-77
2021/01/15 08:50:25;;;;;;;1.90;1.80;;;2.80;71.50;;;;;;4952170;28;20186;-77
2021/01/15 08:52:51;;;;;;;2.30;2.10;;;3.40;72.00;;;;;;4972084;28;20193;-76
2021/01/15 08:55:19;;;;;;;2.20;2.10;;;4.00;70.70;;;;;;4970371;28;20182;-76
2021/01/15 08:57:48;;;;;;;2.20;2.00;;;4.70;69.30;;;;;;4955444;28;20198;-76
2021/01/15 09:00:15;;;;;;;4.50;3.10;;;5.10;66.90;;;;;;4978897;28;20309;-76
2021/01/15 09:02:42;;;;;;;2.60;2.37;;;5.40;66.40;;;;;;4968913;28;20190;-75
2021/01/15 09:05:13;;;;;;;2.70;2.50;;;5.60;66.00;;;;;;4951210;28;20721;-77
2021/01/15 09:07:44;;;;;;;3.30;3.00;;;6.00;66.60;;;;;;4969649;28;20187;-77
2021/01/15 09:10:12;;;;;;;2.97;2.77;;;6.50;65.00;;;;;;4949709;28;20190;-76
2021/01/15 09:12:42;;;;;;;2.97;2.77;;;6.80;63.40;;;;;;4968575;28;20260;-75
2021/01/15 09:15:18;;;;;;;2.17;2.07;;;7.10;62.70;;;;;;4979774;28;20186;-76
2021/01/15 09:17:44;;;;;;;1.90;1.90;;;7.00;61.70;;;;;;4972841;28;20193;-75
2021/01/15 09:20:10;;;;;;;1.77;1.77;;;7.00;61.90;;;;;;4953932;28;20217;-76
2021/01/15 09:22:36;;;;;;;3.87;2.90;;;7.20;62.70;;;;;;4949798;28;20175;-76
2021/01/15 09:25:01;;;;;;;2.63;2.33;;;7.70;62.30;;;;;;4952862;28;20194;-75
2021/01/15 09:27:29;;;;;;;2.13;2.03;;;8.10;60.80;;;;;;4976975;28;20245;-75
2021/01/15 09:29:55;;;;;;;2.90;2.80;;;8.50;60.10;;;;;;4966309;28;20257;-75
2021/01/15 09:32:21;;;;;;;2.57;2.47;;;8.70;59.10;;;;;;4965616;28;20746;-74
2021/01/15 09:34:46;;;;;;;3.00;2.80;;;8.50;59.00;;;;;;4967532;28;20221;-75
2021/01/15 09:37:12;;;;;;;2.60;2.50;;;8.00;59.00;;;;;;4967692;28;20694;-75
2021/01/15 09:39:38;;;;;;;2.23;2.13;;;7.20;59.20;;;;;;4968582;28;20269;-76
2021/01/15 09:42:04;;;;;;;1.80;1.80;;;6.50;60.70;;;;;;4971242;28;20188;-76
2021/01/15 09:44:30;;;;;;;6.70;2.70;;;5.80;61.70;;;;;;4961065;28;20305;-77
2021/01/15 09:46:59;;;;;;;1.93;1.83;;;5.10;63.00;;;;;;4961965;28;20191;-75
2021/01/15 09:49:25;;;;;;;2.37;2.27;;;4.50;63.90;;;;;;4968076;28;20626;-75
2021/01/15 09:51:51;;;;;;;2.23;1.60;;;3.90;64.90;;;;;;4956427;28;20224;-77
2021/01/15 09:54:17;;;;;;;1.47;1.37;;;3.30;66.30;;;;;;4964115;28;20206;-77
2021/01/15 09:56:44;;;;;;;1.20;1.20;;;3.00;67.40;;;;;;4967895;28;20651;-77
2021/01/15 09:59:14;;;;;;;1.67;1.30;;;2.80;67.90;;;;;;4957843;28;20186;-76
2021/01/15 10:01:40;;;;;;;1.73;1.63;;;2.70;68.10;;;;;;4967755;28;20662;-76
2021/01/15 10:04:06;;;;;;;1.40;1.40;;;2.60;68.50;;;;;;4965482;28;20190;-77
2021/01/15 10:06:36;;;;;;;1.83;1.73;;;2.20;68.70;;;;;;4962582;28;20664;-76
2021/01/15 10:09:02;;;;;;;2.30;2.03;;;2.10;69.30;;;;;;4967161;28;20241;-76
2021/01/15 10:11:29;;;;;;;3.10;1.73;;;2.00;69.90;;;;;;4959102;28;20197;-74
2021/01/15 10:14:12;;;;;;;2.03;1.93;;;1.90;70.00;;;;;;4966572;28;20237;-75
2021/01/15 10:16:56;;;;;;;1.43;1.20;;;1.90;70.40;;;;;;4960636;28;20250;-76
2021/01/15 10:19:21;;;;;;;2.07;1.90;;;1.70;70.30;;;;;;4964888;28;20277;-74
2021/01/15 10:21:47;;;;;;;2.30;2.13;;;1.60;70.80;;;;;;4966571;28;20186;-75
2021/01/15 10:24:14;;;;;;;1.93;1.83;;;1.60;71.10;;;;;;4966421;28;20186;-75
2021/01/15 10:26:41;;;;;;;1.40;1.40;;;1.60;71.20;;;;;;4965472;28;20240;-76
2021/01/15 10:29:14;;;;;;;1.77;1.47;;;1.70;71.50;;;;;;4967907;28;20330;-76
2021/01/15 10:31:50;;;;;;;2.37;2.03;;;2.00;70.90;;;;;;4953940;28;20707;-74
2021/01/15 10:34:16;;;;;;;1.70;1.60;;;2.10;70.50;;;;;;4967335;28;20265;-75
2021/01/15 10:36:43;;;;;;;2.40;2.00;;;2.60;70.40;;;;;;4966888;28;20187;-74
2021/01/15 10:39:10;;;;;;;2.37;2.07;;;3.40;69.30;;;;;;4959762;28;20186;-77
2021/01/15 10:41:38;;;;;;;1.83;1.73;;;4.20;66.30;;;;;;4954101;28;20621;-73
2021/01/15 10:44:07;;;;;;;2.40;2.20;;;5.00;65.60;;;;;;4972631;28;20233;-75
2021/01/15 10:46:38;;;;;;;1.87;1.77;;;6.00;63.80;;;;;;4975208;28;20178;-75
2021/01/15 10:49:09;;;;;;;2.33;2.17;;;6.90;61.20;;;;;;4966800;28;20179;-76
2021/01/15 10:51:35;;;;;;;2.63;1.87;;;7.40;59.90;;;;;;4968349;28;20186;-74
2021/01/15 10:54:01;;;;;;;2.50;2.30;;;7.80;58.70;;;;;;4966314;28;20289;-74
2021/01/15 10:56:36;;;;;;;2.57;2.47;;;8.30;58.80;;;;;;4965109;28;20269;-74
2021/01/15 10:59:06;;;;;;;3.07;2.87;;;8.60;57.40;;;;;;4974552;28;20209;-76
2021/01/15 11:01:42;;;;;;;2.70;2.60;;;8.70;58.20;;;;;;4972258;28;20317;-75
2021/01/15 11:04:11;;;;;;;2.70;2.53;;;9.30;58.40;;;;;;4970178;28;20173;-76
2021/01/15 11:06:39;;;;;;;2.90;2.70;;;10.10;56.30;;;;;;4968582;28;20193;-76
2021/01/15 11:09:06;;;;;;;3.20;3.00;;;10.40;55.00;;;;;;4964810;28;20174;-77
2021/01/15 11:11:32;;;;;;;2.73;2.57;;;10.70;55.20;;;;;;4969018;28;20249;-77
2021/01/15 11:13:58;;;;;;;2.55;2.45;;;10.60;54.10;;;;;;4967488;28;20186;-76
2021/01/15 11:16:25;;;;;;;2.85;2.75;;;10.00;54.20;;;;;;4965886;28;20186;-74
2021/01/15 11:18:51;;;;;;;3.35;3.20;;;8.90;55.30;;;;;;4965684;28;20252;-77
2021/01/15 11:21:23;;;;;;;3.23;3.10;;;8.20;56.70;;;;;;4964801;28;20209;-76
2021/01/15 11:23:49;;;;;;;3.13;2.87;;;7.40;57.80;;;;;;4972341;28;20185;-74
2021/01/15 11:26:24;;;;;;;3.33;3.03;;;6.80;59.10;;;;;;4971494;28;20562;-76
2021/01/15 11:28:52;;;;;;;3.90;3.37;;;6.40;60.30;;;;;;4964987;28;20197;-75
2021/01/15 11:31:21;;;;;;;3.73;2.80;;;5.90;61.10;;;;;;4961568;28;20683;-75
2021/01/15 11:33:47;;;;;;;6.70;3.93;;;5.80;61.40;;;;;;4959882;28;20985;-74
2021/01/15 11:36:14;;;;;;;2.67;2.47;;;5.30;61.80;;;;;;4949759;28;20182;-76
2021/01/15 11:38:41;;;;;;;3.23;2.53;;;4.80;62.90;;;;;;4970274;28;20272;-76
2021/01/15 11:41:26;;;;;;;2.17;2.07;;;4.50;63.60;;;;;;4965104;28;20202;-74
2021/01/15 11:43:51;;;;;;;2.63;2.33;;;4.30;63.80;;;;;;4956536;28;20662;-76
2021/01/15 11:46:17;;;;;;;2.50;2.40;;;4.00;64.20;;;;;;4965067;28;20183;-75
2021/01/15 11:48:43;;;;;;;1.90;1.80;;;3.60;65.10;;;;;;4966034;28;20197;-77
2021/01/15 11:51:10;;;;;;;3.50;2.30;;;3.30;66.20;;;;;;4946953;28;20589;-76
2021/01/15 11:53:37;;;;;;;3.40;1.90;;;3.40;66.60;;;;;;4967717;28;20187;-77
2021/01/15 11:56:05;;;;;;;2.40;2.30;;;3.40;66.10;;;;;;4950810;28;20551;-77
2021/01/15 11:58:31;;;;;;;1.93;1.83;;;3.10;66.40;;;;;;4951018;28;20197;-74
2021/01/15 12:00:57;;;;;;;2.23;1.97;;;2.90;65.90;;;;;;4958097;28;20908;-77
2021/01/15 12:03:23;;;;;;;2.73;2.53;;;2.60;66.40;;;;;;4952008;28;21010;-77
2021/01/15 12:05:49;;;;;;;1.90;1.80;;;2.90;66.80;;;;;;4966750;28;20186;-75
2021/01/15 12:08:19;;;;;;;2.17;1.93;;;3.70;66.00;;;;;;4966066;28;20250;-72
2021/01/15 12:10:47;;;;;;;1.97;1.87;;;4.10;64.40;;;;;;4968676;28;20268;-76
2021/01/15 12:13:12;;;;;;;2.77;1.97;;;4.10;63.50;;;;;;4972113;28;20178;-76
2021/01/15 12:15:38;;;;;;;3.93;1.90;;;4.60;64.10;;;;;;4971868;28;20215;-76
2021/01/15 12:18:04;;;;;;;2.30;2.20;;;5.20;62.10;;;;;;4972156;28;20210;-76
2021/01/15 12:20:39;;;;;;;1.93;1.70;;;5.30;60.90;;;;;;4971836;28;20892;-76
2021/01/15 12:23:07;;;;;;;4.00;2.40;;;5.40;60.60;;;;;;4944940;28;20175;-78
2021/01/15 12:25:38;;;;;;;2.90;2.70;;;5.70;60.10;;;;;;4950807;28;20265;-76
2021/01/15 12:28:07;;;;;;;3.00;2.43;;;6.10;60.20;;;;;;4968699;28;20201;-77
2021/01/15 12:30:33;;;;;;;2.67;2.47;;;6.40;59.00;;;;;;4987133;28;20182;-77
2021/01/15 12:33:10;;;;;;;2.50;2.40;;;6.60;59.30;;;;;;4973520;28;20674;-76
2021/01/15 12:35:38;;;;;;;2.33;2.13;;;6.80;58.10;;;;;;4969876;28;20170;-74
2021/01/15 12:38:23;;;;;;;2.53;2.23;;;7.00;57.40;;;;;;4968218;28;20175;-73
2021/01/15 12:40:50;;;;;;;2.77;2.60;;;7.30;57.50;;;;;;4966414;28;20269;-76
2021/01/15 12:43:16;;;;;;;2.20;2.10;;;7.80;56.80;;;;;;4957939;28;20240;-77
2021/01/15 12:45:44;;;;;;;1.60;1.60;;;7.90;54.80;;;;;;4967744;28;20568;-75
2021/01/15 12:48:11;;;;;;;2.17;2.07;;;7.80;54.10;;;;;;4958993;28;20182;-73
2021/01/15 12:50:37;;;;;;;2.53;2.20;;;7.40;54.20;;;;;;4949048;28;20725;-75
2021/01/15 12:53:03;;;;;;;4.60;3.40;;;6.90;55.50;;;;;;4967251;28;20186;-74
2021/01/15 12:55:30;;;;;;;3.80;3.43;;;6.30;57.30;;;;;;4975219;28;20253;-73
2021/01/15 12:57:59;;;;;;;7.13;2.73;;;5.80;58.50;;;;;;4967979;28;20189;-74
2021/01/15 13:00:26;;;;;;;3.20;3.00;;;5.30;60.00;;;;;;4969899;28;20214;-75
2021/01/15 13:02:52;;;;;;;5.67;3.43;;;5.00;60.40;;;;;;4976829;28;20240;-74
2021/01/15 13:05:18;;;;;;;4.20;3.23;;;4.50;61.20;;;;;;4957047;28;20183;-73